Time;durP1;ratioP1;P1;durP2;ratioP2;P2;SDS_P1;SDS_P2;PMS_P1;PMS_P2;Temp;Humidity;BMP_temperature;BMP_pressure;BME280_temperature;BME280_humidity;BME280_pressure;Samples;Min_cycle;Max_cycle;Signal;HPM_P1;HPM_P2
2023/09/18 00:01:50;;;;;;;18.17;10.37;;;;;;;;;;6243167;28;20381;-60
2023/09/18 00:04:51;;;;;;;14.33;9.90;;;;;;;;;;6247016;28;20824;-59
2023/09/18 00:07:52;;;;;;;13.23;8.93;;;;;;;;;;6249619;28;20385;-60
2023/09/18 00:10:54;;;;;;;13.98;9.45;;;;;;;;;;6244267;28;20038;-60
2023/09/18 00:13:54;;;;;;;14.05;9.60;;;;;;;;;;6243617;28;20123;-59
2023/09/18 00:16:57;;;;;;;14.23;9.93;;;;;;;;;;6243445;28;20506;-60
2023/09/18 00:19:57;;;;;;;14.50;9.95;;;;;;;;;;6241330;28;20053;-59
2023/09/18 00:22:58;;;;;;;17.42;11.70;;;;;;;;;;6243968;28;20148;-59
2023/09/18 00:25:59;;;;;;;14.23;10.53;;;;;;;;;;6243167;28;20426;-60
2023/09/18 00:28:59;;;;;;;16.00;10.95;;;;;;;;;;6243683;28;20061;-59
2023/09/18 00:32:00;;;;;;;16.57;11.23;;;;;;;;;;6242208;28;20095;-59
2023/09/18 00:35:00;;;;;;;15.63;10.77;;;;;;;;;;6242363;28;20408;-59
2023/09/18 00:38:03;;;;;;;15.73;10.53;;;;;;;;;;6241520;28;20071;-61
2023/09/18 00:41:04;;;;;;;15.25;10.00;;;;;;;;;;6242357;28;20061;-59
2023/09/18 00:44:05;;;;;;;17.27;11.18;;;;;;;;;;6242990;28;20049;-60
2023/09/18 00:47:07;;;;;;;16.50;9.97;;;;;;;;;;6243435;28;20457;-57
2023/09/18 00:50:10;;;;;;;14.90;9.93;;;;;;;;;;6242894;28;20793;-59
2023/09/18 00:53:17;;;;;;;17.80;11.10;;;;;;;;;;6241848;28;20507;-59
2023/09/18 00:56:20;;;;;;;18.17;10.88;;;;;;;;;;6244532;28;20049;-58
2023/09/18 00:59:21;;;;;;;15.88;10.00;;;;;;;;;;6242108;28;20057;-58
2023/09/18 01:02:21;;;;;;;15.60;10.18;;;;;;;;;;6242626;28;20493;-59
2023/09/18 01:05:22;;;;;;;13.20;9.50;;;;;;;;;;6253112;28;20072;-58
2023/09/18 01:08:23;;;;;;;13.07;9.23;;;;;;;;;;6246715;28;20046;-60
2023/09/18 01:11:42;;;;;;;13.00;9.07;;;;;;;;;;6242120;28;20051;-58
2023/09/18 01:15:11;;;;;;;13.80;9.63;;;;;;;;;;6249053;28;20053;-58
2023/09/18 01:18:12;;;;;;;13.02;8.80;;;;;;;;;;6241861;28;20057;-57
2023/09/18 01:21:12;;;;;;;13.60;8.98;;;;;;;;;;6242314;28;20060;-58
2023/09/18 01:24:13;;;;;;;13.90;9.30;;;;;;;;;;6241937;28;20105;-58
2023/09/18 01:27:16;;;;;;;12.63;8.77;;;;;;;;;;6240225;28;20037;-59
2023/09/18 01:30:17;;;;;;;14.52;9.15;;;;;;;;;;6242171;28;20065;-59
2023/09/18 01:33:20;;;;;;;12.43;8.20;;;;;;;;;;6238941;28;20047;-57
2023/09/18 01:36:21;;;;;;;12.57;8.70;;;;;;;;;;6239983;28;20041;-60
2023/09/18 01:39:22;;;;;;;12.73;8.13;;;;;;;;;;6241717;28;20049;-57
2023/09/18 01:42:23;;;;;;;12.30;8.17;;;;;;;;;;6240590;28;20099;-59
2023/09/18 01:45:24;;;;;;;12.73;8.90;;;;;;;;;;6241298;28;20508;-59
2023/09/18 01:48:24;;;;;;;13.00;8.80;;;;;;;;;;6241341;28;20052;-58
2023/09/18 01:51:25;;;;;;;13.90;9.25;;;;;;;;;;6239306;28;20120;-58
2023/09/18 01:54:25;;;;;;;11.63;8.70;;;;;;;;;;6240965;28;20057;-57
2023/09/18 01:57:26;;;;;;;11.00;7.47;;;;;;;;;;6240937;28;20048;-57
2023/09/18 02:00:27;;;;;;;10.55;7.85;;;;;;;;;;6241435;28;20394;-59
2023/09/18 02:03:27;;;;;;;13.95;8.68;;;;;;;;;;6240993;28;20421;-58
2023/09/18 02:06:28;;;;;;;11.60;7.68;;;;;;;;;;6256134;28;20048;-60
2023/09/18 02:09:29;;;;;;;10.77;7.70;;;;;;;;;;6250898;28;20053;-60
2023/09/18 02:12:29;;;;;;;16.30;9.70;;;;;;;;;;6247583;28;20045;-59
2023/09/18 02:15:31;;;;;;;15.32;9.57;;;;;;;;;;6246532;28;20041;-60
2023/09/18 02:18:31;;;;;;;13.53;8.90;;;;;;;;;;6240489;28;20045;-60
2023/09/18 02:21:32;;;;;;;14.93;8.90;;;;;;;;;;6238267;28;20048;-60
2023/09/18 02:24:32;;;;;;;14.05;8.98;;;;;;;;;;6240594;28;20420;-57
2023/09/18 02:27:33;;;;;;;14.03;9.10;;;;;;;;;;6243348;28;20104;-60
2023/09/18 02:30:34;;;;;;;14.40;9.82;;;;;;;;;;6240207;28;20041;-58
2023/09/18 02:33:36;;;;;;;15.00;9.67;;;;;;;;;;6237648;28;20050;-60
2023/09/18 02:36:37;;;;;;;17.10;9.43;;;;;;;;;;6242836;28;20171;-58
2023/09/18 02:39:37;;;;;;;14.77;9.10;;;;;;;;;;6240089;28;20050;-58
2023/09/18 02:42:38;;;;;;;15.55;10.35;;;;;;;;;;6240490;28;20042;-62
2023/09/18 02:45:40;;;;;;;13.63;9.15;;;;;;;;;;6240834;28;20056;-61
2023/09/18 02:48:40;;;;;;;18.42;10.07;;;;;;;;;;6240205;28;20493;-59
2023/09/18 02:51:41;;;;;;;15.47;9.90;;;;;;;;;;6241015;28;20033;-63
2023/09/18 02:54:41;;;;;;;12.93;9.20;;;;;;;;;;6239592;28;20034;-60
2023/09/18 02:57:42;;;;;;;15.10;9.83;;;;;;;;;;6240275;28;20386;-60
2023/09/18 03:00:44;;;;;;;14.15;9.68;;;;;;;;;;6240112;28;20123;-62
2023/09/18 03:03:44;;;;;;;13.07;9.63;;;;;;;;;;6241637;28;20046;-61
2023/09/18 03:06:45;;;;;;;15.15;9.80;;;;;;;;;;6262920;28;20560;-59
2023/09/18 03:09:46;;;;;;;16.60;10.05;;;;;;;;;;6243873;28;20405;-60
2023/09/18 03:12:49;;;;;;;13.52;9.23;;;;;;;;;;6242883;28;20037;-60
2023/09/18 03:15:50;;;;;;;17.25;10.75;;;;;;;;;;6244014;28;20045;-59
2023/09/18 03:18:50;;;;;;;16.85;10.38;;;;;;;;;;6245196;28;20107;-59
2023/09/18 03:21:51;;;;;;;17.17;9.98;;;;;;;;;;6245096;28;20084;-60
2023/09/18 03:24:51;;;;;;;15.48;10.13;;;;;;;;;;6244244;28;20497;-59
2023/09/18 03:27:54;;;;;;;14.87;9.87;;;;;;;;;;6244327;28;20052;-59
2023/09/18 03:30:55;;;;;;;14.35;9.95;;;;;;;;;;6243333;28;20069;-59
2023/09/18 03:33:55;;;;;;;15.55;9.98;;;;;;;;;;6243223;28;20544;-59
2023/09/18 03:36:56;;;;;;;15.37;9.47;;;;;;;;;;6244344;28;20046;-58
2023/09/18 03:39:56;;;;;;;14.25;9.88;;;;;;;;;;6243757;28;20428;-57
2023/09/18 03:42:57;;;;;;;14.75;9.13;;;;;;;;;;6244164;28;20036;-57
2023/09/18 03:46:05;;;;;;;13.38;9.10;;;;;;;;;;6244065;28;20053;-58
2023/09/18 03:49:06;;;;;;;15.10;10.00;;;;;;;;;;6245173;28;20124;-58
2023/09/18 03:52:07;;;;;;;14.65;9.52;;;;;;;;;;6244672;28;20500;-56
2023/09/18 03:55:08;;;;;;;15.07;9.40;;;;;;;;;;6244436;28;20084;-60
2023/09/18 03:58:10;;;;;;;13.10;8.60;;;;;;;;;;6244285;28;20510;-59
2023/09/18 04:01:10;;;;;;;13.25;8.90;;;;;;;;;;6248667;28;21002;-62
2023/09/18 04:04:11;;;;;;;19.45;11.32;;;;;;;;;;6246559;28;20136;-61
2023/09/18 04:07:16;;;;;;;13.75;9.48;;;;;;;;;;6240349;28;20044;-60
2023/09/18 04:10:22;;;;;;;14.73;9.68;;;;;;;;;;6249497;28;20385;-59
2023/09/18 04:13:22;;;;;;;14.40;9.80;;;;;;;;;;6249391;28;20117;-60
2023/09/18 04:16:23;;;;;;;15.43;10.55;;;;;;;;;;6243760;28;20049;-59
2023/09/18 04:19:24;;;;;;;16.20;10.65;;;;;;;;;;6250379;28;20059;-62
2023/09/18 04:22:24;;;;;;;14.48;10.50;;;;;;;;;;6255830;28;20077;-63
2023/09/18 04:25:26;;;;;;;15.57;10.93;;;;;;;;;;6243899;28;20044;-61
2023/09/18 04:28:26;;;;;;;19.65;11.63;;;;;;;;;;6243218;28;20055;-61
2023/09/18 04:31:27;;;;;;;21.50;12.48;;;;;;;;;;6245636;28;20049;-63
2023/09/18 04:34:28;;;;;;;19.25;11.32;;;;;;;;;;6255254;28;20407;-62
2023/09/18 04:37:28;;;;;;;19.67;12.35;;;;;;;;;;6257288;28;20052;-62
2023/09/18 04:40:32;;;;;;;19.67;12.43;;;;;;;;;;6242960;28;20073;-61
2023/09/18 04:43:34;;;;;;;18.33;11.75;;;;;;;;;;6256395;28;20450;-63
2023/09/18 04:46:35;;;;;;;20.45;12.43;;;;;;;;;;6247686;28;20545;-62
2023/09/18 04:49:36;;;;;;;19.35;12.82;;;;;;;;;;6243975;28;20045;-62
2023/09/18 04:52:36;;;;;;;20.52;12.75;;;;;;;;;;6242822;28;20409;-62
2023/09/18 04:55:38;;;;;;;25.40;12.65;;;;;;;;;;6242669;28;20056;-62
2023/09/18 04:58:39;;;;;;;21.80;13.40;;;;;;;;;;6241114;28;20053;-61
2023/09/18 05:01:39;;;;;;;20.48;13.40;;;;;;;;;;6240025;28;20124;-60
2023/09/18 05:04:40;;;;;;;20.00;12.30;;;;;;;;;;6242122;28;20041;-63
2023/09/18 05:07:40;;;;;;;20.85;12.65;;;;;;;;;;6241538;28;20354;-63
2023/09/18 05:10:41;;;;;;;21.05;13.63;;;;;;;;;;6242478;28;20049;-63
2023/09/18 05:13:41;;;;;;;21.00;13.15;;;;;;;;;;6245662;28;20535;-62
2023/09/18 05:16:42;;;;;;;20.48;12.52;;;;;;;;;;6243099;28;20520;-62
2023/09/18 05:19:43;;;;;;;20.73;12.77;;;;;;;;;;6241018;28;20046;-62
2023/09/18 05:22:45;;;;;;;20.95;13.45;;;;;;;;;;6240832;28;20139;-63
2023/09/18 05:25:45;;;;;;;22.20;13.33;;;;;;;;;;6242209;28;20213;-60
2023/09/18 05:28:47;;;;;;;22.50;13.50;;;;;;;;;;6242772;28;20140;-61
2023/09/18 05:31:48;;;;;;;23.48;14.15;;;;;;;;;;6246755;28;20408;-62
2023/09/18 05:34:48;;;;;;;27.13;14.67;;;;;;;;;;6241281;28;20061;-60
2023/09/18 05:37:54;;;;;;;22.10;13.20;;;;;;;;;;6241940;28;20064;-62
2023/09/18 05:40:55;;;;;;;30.60;13.73;;;;;;;;;;6239266;28;20545;-62
2023/09/18 05:43:56;;;;;;;23.67;14.65;;;;;;;;;;6248262;28;20037;-62
2023/09/18 05:46:57;;;;;;;;;;;;;;;;;;6242358;28;20055;-61
2023/09/18 05:49:57;;;;;;;25.83;13.98;;;;;;;;;;6245041;28;19921;-58
2023/09/18 05:53:03;;;;;;;34.42;15.82;;;;;;;;;;6246403;28;20049;-60
2023/09/18 05:56:04;;;;;;;38.03;16.35;;;;;;;;;;6241970;28;20033;-60
2023/09/18 05:59:05;;;;;;;32.45;16.83;;;;;;;;;;6241023;28;20055;-60
2023/09/18 06:02:06;;;;;;;25.95;15.93;;;;;;;;;;6240720;28;20041;-60
2023/09/18 06:05:07;;;;;;;25.70;17.25;;;;;;;;;;6241487;28;20519;-60
2023/09/18 06:08:07;;;;;;;26.20;16.93;;;;;;;;;;6247318;28;20051;-60
2023/09/18 06:11:08;;;;;;;26.40;16.92;;;;;;;;;;6240360;28;20140;-60
2023/09/18 06:14:10;;;;;;;28.02;16.80;;;;;;;;;;6241560;28;20049;-60
2023/09/18 06:17:11;;;;;;;25.85;16.17;;;;;;;;;;6253801;28;20605;-60
2023/09/18 06:20:15;;;;;;;28.30;16.58;;;;;;;;;;6241316;28;20048;-58
2023/09/18 06:23:19;;;;;;;25.85;16.15;;;;;;;;;;6238552;28;20485;-60
2023/09/18 06:26:21;;;;;;;27.45;16.17;;;;;;;;;;6239140;28;20045;-59
2023/09/18 06:29:22;;;;;;;27.08;16.25;;;;;;;;;;6241180;28;20052;-60
2023/09/18 06:32:22;;;;;;;28.30;15.77;;;;;;;;;;6241013;28;20049;-60
2023/09/18 06:35:23;;;;;;;24.93;16.13;;;;;;;;;;6240888;28;20179;-60
2023/09/18 06:38:24;;;;;;;25.08;15.75;;;;;;;;;;6240119;28;20041;-60
2023/09/18 06:41:24;;;;;;;24.10;16.07;;;;;;;;;;6239652;28;20065;-60
2023/09/18 06:44:25;;;;;;;25.63;16.07;;;;;;;;;;6240034;28;20049;-60
2023/09/18 06:47:26;;;;;;;29.63;16.73;;;;;;;;;;6250978;28;20560;-60
2023/09/18 06:50:26;;;;;;;26.50;16.37;;;;;;;;;;6237768;28;20033;-59
2023/09/18 06:53:27;;;;;;;25.03;16.53;;;;;;;;;;6239308;28;20049;-60
2023/09/18 06:56:28;;;;;;;27.23;16.80;;;;;;;;;;6240051;28;20094;-60
2023/09/18 06:59:29;;;;;;;25.17;16.75;;;;;;;;;;6240666;28;20057;-60
2023/09/18 07:02:30;;;;;;;26.47;16.17;;;;;;;;;;6239709;28;20420;-60
2023/09/18 07:05:30;;;;;;;26.30;15.90;;;;;;;;;;6238963;28;20115;-58
2023/09/18 07:08:32;;;;;;;24.17;15.43;;;;;;;;;;6241082;28;20503;-60
2023/09/18 07:11:34;;;;;;;24.17;16.05;;;;;;;;;;6240695;28;20182;-60
2023/09/18 07:14:34;;;;;;;24.77;16.13;;;;;;;;;;6240172;28;20111;-60
2023/09/18 07:17:38;;;;;;;24.57;15.80;;;;;;;;;;6240236;28;20038;-60
2023/09/18 07:20:38;;;;;;;22.55;16.02;;;;;;;;;;6239317;28;20048;-60
2023/09/18 07:23:40;;;;;;;25.60;15.60;;;;;;;;;;6241424;28;20045;-60
2023/09/18 07:26:40;;;;;;;24.83;16.55;;;;;;;;;;6238631;28;20086;-60
2023/09/18 07:29:41;;;;;;;23.63;15.63;;;;;;;;;;6243933;28;20127;-60
2023/09/18 07:32:42;;;;;;;25.30;16.73;;;;;;;;;;6250173;28;20045;-60
2023/09/18 07:35:47;;;;;;;25.25;16.17;;;;;;;;;;6249293;28;20053;-60
2023/09/18 07:38:48;;;;;;;23.90;16.42;;;;;;;;;;6246716;28;20152;-60
2023/09/18 07:41:49;;;;;;;25.07;15.80;;;;;;;;;;6248649;28;20132;-60
2023/09/18 07:44:50;;;;;;;27.23;16.67;;;;;;;;;;6242810;28;20537;-60
2023/09/18 07:47:50;;;;;;;27.67;17.05;;;;;;;;;;6246387;28;20041;-60
2023/09/18 07:50:51;;;;;;;27.57;17.27;;;;;;;;;;6246213;28;20412;-61
2023/09/18 07:53:52;;;;;;;27.80;17.27;;;;;;;;;;6257642;28;20056;-61
2023/09/18 07:56:52;;;;;;;24.03;16.90;;;;;;;;;;6230301;28;20128;-60
2023/09/18 07:59:53;;;;;;;25.93;16.43;;;;;;;;;;6253124;28;20147;-60
2023/09/18 08:02:58;;;;;;;26.90;17.47;;;;;;;;;;6252032;28;20050;-60
2023/09/18 08:05:59;;;;;;;25.25;17.33;;;;;;;;;;6252700;28;20179;-59
2023/09/18 08:09:00;;;;;;;27.77;17.80;;;;;;;;;;6251185;28;20048;-59
2023/09/18 08:12:01;;;;;;;23.25;16.65;;;;;;;;;;6251498;28;20492;-60
2023/09/18 08:15:02;;;;;;;28.83;17.73;;;;;;;;;;6252161;28;20052;-60
2023/09/18 08:18:03;;;;;;;;;;;;;;;;;;6247472;28;20060;-60
2023/09/18 08:21:04;;;;;;;26.90;17.50;;;;;;;;;;6251052;28;19928;-61
2023/09/18 08:24:05;;;;;;;24.33;17.27;;;;;;;;;;6253252;28;20041;-60
2023/09/18 08:27:05;;;;;;;25.33;17.33;;;;;;;;;;6247041;28;20040;-60
2023/09/18 08:30:06;;;;;;;28.63;18.27;;;;;;;;;;6247726;28;20559;-60
2023/09/18 08:33:07;;;;;;;24.07;17.17;;;;;;;;;;6251014;28;20044;-60
2023/09/18 08:36:08;;;;;;;26.77;17.03;;;;;;;;;;6249730;28;20040;-61
2023/09/18 08:39:09;;;;;;;27.70;17.53;;;;;;;;;;6246730;28;20053;-61
2023/09/18 08:42:11;;;;;;;25.93;18.30;;;;;;;;;;6250814;28;20045;-61
2023/09/18 08:45:14;;;;;;;;;;;;;;;;;;6250072;28;20048;-61
2023/09/18 08:48:15;;;;;;;26.73;17.27;;;;;;;;;;6249143;28;19931;-61
2023/09/18 08:51:18;;;;;;;27.00;18.25;;;;;;;;;;6253801;28;20033;-61
2023/09/18 08:54:19;;;;;;;23.92;16.88;;;;;;;;;;6251751;28;20428;-61
2023/09/18 08:57:21;;;;;;;26.00;18.70;;;;;;;;;;6250299;28;20049;-61
2023/09/18 09:00:21;;;;;;;27.70;18.02;;;;;;;;;;6250449;28;20053;-61
2023/09/18 09:03:22;;;;;;;26.23;17.97;;;;;;;;;;6246932;28;20052;-61
2023/09/18 09:06:23;;;;;;;27.83;18.02;;;;;;;;;;6250200;28;20048;-61
2023/09/18 09:09:24;;;;;;;30.80;19.20;;;;;;;;;;6252220;28;20060;-60
2023/09/18 09:12:46;;;;;;;28.48;18.25;;;;;;;;;;6253083;28;20041;-61
2023/09/18 09:15:49;;;;;;;27.17;17.38;;;;;;;;;;6251702;28;20055;-61
2023/09/18 09:18:50;;;;;;;30.65;18.77;;;;;;;;;;6250254;28;20504;-62
2023/09/18 09:21:51;;;;;;;27.65;19.38;;;;;;;;;;6253086;28;20053;-61
2023/09/18 09:24:52;;;;;;;28.02;18.95;;;;;;;;;;6253490;28;20053;-61
2023/09/18 09:27:54;;;;;;;25.53;18.17;;;;;;;;;;6249770;28;20045;-61
2023/09/18 09:31:03;;;;;;;26.77;18.58;;;;;;;;;;6251285;28;20518;-62
2023/09/18 09:34:05;;;;;;;29.13;18.35;;;;;;;;;;6250954;28;20135;-61
2023/09/18 09:37:06;;;;;;;29.80;19.10;;;;;;;;;;6252105;28;20055;-62
2023/09/18 09:40:09;;;;;;;29.50;19.30;;;;;;;;;;6244686;28;20041;-61
2023/09/18 09:43:13;;;;;;;30.08;19.50;;;;;;;;;;6251701;28;20897;-61
2023/09/18 09:46:18;;;;;;;30.35;18.85;;;;;;;;;;6252309;28;20136;-62
2023/09/18 09:49:24;;;;;;;28.05;18.58;;;;;;;;;;6249546;28;20219;-61
2023/09/18 09:52:25;;;;;;;29.58;18.65;;;;;;;;;;6249293;28;20447;-62
2023/09/18 09:55:28;;;;;;;26.63;18.93;;;;;;;;;;6251853;28;20242;-61
2023/09/18 09:58:31;;;;;;;26.00;18.67;;;;;;;;;;6248571;28;20313;-61
2023/09/18 10:01:32;;;;;;;25.73;18.55;;;;;;;;;;6245984;28;20831;-61
2023/09/18 10:04:36;;;;;;;29.57;17.77;;;;;;;;;;6248712;28;20266;-61
2023/09/18 10:07:38;;;;;;;26.98;18.27;;;;;;;;;;6244210;28;20048;-61
2023/09/18 10:10:45;;;;;;;26.33;17.90;;;;;;;;;;6247230;28;20532;-61
2023/09/18 10:14:16;;;;;;;24.70;17.70;;;;;;;;;;6249218;28;20625;-61
2023/09/18 10:17:19;;;;;;;26.10;17.85;;;;;;;;;;6249815;28;20400;-61
2023/09/18 10:20:21;;;;;;;26.20;17.42;;;;;;;;;;6250134;28;20110;-60
2023/09/18 10:23:52;;;;;;;25.73;17.15;;;;;;;;;;6249166;28;20686;-60
2023/09/18 10:27:04;;;;;;;24.98;17.35;;;;;;;;;;6248033;28;20589;-61
2023/09/18 10:30:10;;;;;;;26.23;17.15;;;;;;;;;;6246561;28;20055;-61
2023/09/18 10:33:13;;;;;;;26.23;17.40;;;;;;;;;;6251266;28;20048;-61
2023/09/18 10:36:14;;;;;;;25.02;17.35;;;;;;;;;;6248561;28;20071;-61
2023/09/18 10:39:19;;;;;;;25.92;18.08;;;;;;;;;;6248414;28;20044;-62
2023/09/18 10:42:22;;;;;;;26.98;17.63;;;;;;;;;;6247489;28;20393;-62
2023/09/18 10:45:24;;;;;;;25.50;18.73;;;;;;;;;;6252103;28;20504;-61
2023/09/18 10:48:25;;;;;;;25.50;17.65;;;;;;;;;;6247124;28;20053;-61
2023/09/18 10:51:27;;;;;;;25.95;17.75;;;;;;;;;;6246075;28;20813;-60
2023/09/18 10:54:29;;;;;;;25.95;16.90;;;;;;;;;;6247854;28;20518;-60
2023/09/18 10:57:35;;;;;;;27.83;17.98;;;;;;;;;;6246547;28;20110;-61
2023/09/18 11:00:36;;;;;;;27.20;17.40;;;;;;;;;;6251159;28;20064;-61
2023/09/18 11:03:37;;;;;;;25.92;17.80;;;;;;;;;;6250526;28;20132;-60
2023/09/18 11:06:53;;;;;;;22.65;16.88;;;;;;;;;;6250359;28;20518;-61
2023/09/18 11:09:53;;;;;;;28.70;17.15;;;;;;;;;;6249546;28;20045;-60
2023/09/18 11:13:05;;;;;;;25.10;17.87;;;;;;;;;;6248619;28;20049;-60
2023/09/18 11:16:33;;;;;;;28.48;17.52;;;;;;;;;;6248782;28;20045;-61
2023/09/18 11:19:41;;;;;;;24.50;16.70;;;;;;;;;;6246115;28;20076;-61
2023/09/18 11:23:09;;;;;;;29.80;18.60;;;;;;;;;;6249412;28;20049;-62
2023/09/18 11:26:11;;;;;;;27.25;18.80;;;;;;;;;;6247455;28;20057;-61
2023/09/18 11:29:14;;;;;;;27.17;17.67;;;;;;;;;;6251649;28;20048;-62
2023/09/18 11:32:15;;;;;;;30.15;19.13;;;;;;;;;;6255835;28;20463;-61
2023/09/18 11:35:19;;;;;;;29.77;20.02;;;;;;;;;;6254648;28;20412;-63
2023/09/18 11:38:19;;;;;;;24.45;17.67;;;;;;;;;;6252562;28;20041;-62
2023/09/18 11:41:27;;;;;;;28.80;18.50;;;;;;;;;;6246295;28;20496;-62
2023/09/18 11:44:27;;;;;;;25.25;17.55;;;;;;;;;;6248181;28;20155;-61
2023/09/18 11:47:29;;;;;;;25.03;17.63;;;;;;;;;;6253661;28;20045;-61
2023/09/18 11:50:30;;;;;;;27.92;18.02;;;;;;;;;;6252698;28;20080;-61
2023/09/18 11:53:35;;;;;;;27.58;18.48;;;;;;;;;;6253145;28;20052;-60
2023/09/18 11:56:39;;;;;;;28.17;18.08;;;;;;;;;;6254343;28;20037;-60
2023/09/18 11:59:42;;;;;;;26.25;17.55;;;;;;;;;;6252715;28;20045;-62
2023/09/18 12:02:46;;;;;;;29.15;18.17;;;;;;;;;;6254162;28;20160;-60
2023/09/18 12:05:48;;;;;;;31.25;18.17;;;;;;;;;;6255869;28;20485;-60
2023/09/18 12:08:51;;;;;;;;;;;;;;;;;;6254796;28;20106;-60
2023/09/18 12:11:53;;;;;;;28.40;17.67;;;;;;;;;;6251633;28;20300;-61
2023/09/18 12:14:54;;;;;;;25.88;17.23;;;;;;;;;;6252238;28;20790;-60
2023/09/18 12:17:55;;;;;;;25.73;17.73;;;;;;;;;;6253888;28;20078;-61
2023/09/18 12:20:56;;;;;;;25.70;16.63;;;;;;;;;;6252284;28;20053;-62
2023/09/18 12:23:57;;;;;;;31.10;17.15;;;;;;;;;;6253728;28;20048;-61
2023/09/18 12:26:57;;;;;;;26.43;17.10;;;;;;;;;;6255017;28;20041;-61
2023/09/18 12:29:59;;;;;;;25.48;16.95;;;;;;;;;;6251218;28;20048;-61
2023/09/18 12:33:01;;;;;;;26.83;17.42;;;;;;;;;;6251388;28;20631;-61
2023/09/18 12:36:04;;;;;;;;;;;;;;;;;;6255123;28;20071;-60
2023/09/18 12:39:06;;;;;;;25.52;16.35;;;;;;;;;;6247465;28;19929;-62
2023/09/18 12:42:07;;;;;;;23.75;15.60;;;;;;;;;;6251270;28;20060;-61
2023/09/18 12:45:08;;;;;;;21.77;14.47;;;;;;;;;;6248448;28;20433;-61
2023/09/18 12:48:10;;;;;;;20.25;13.50;;;;;;;;;;6250671;28;20306;-62
2023/09/18 12:51:11;;;;;;;25.13;14.20;;;;;;;;;;6250440;28;20049;-61
2023/09/18 12:54:13;;;;;;;25.20;13.82;;;;;;;;;;6248232;28;20186;-61
2023/09/18 12:57:16;;;;;;;18.88;13.05;;;;;;;;;;6252011;28;20052;-61
2023/09/18 13:00:22;;;;;;;19.08;12.90;;;;;;;;;;6249488;28;20487;-60
2023/09/18 13:03:23;;;;;;;19.65;13.00;;;;;;;;;;6248508;28;20059;-62
2023/09/18 13:06:25;;;;;;;18.20;12.02;;;;;;;;;;6253810;28;20044;-61
2023/09/18 13:09:25;;;;;;;17.45;11.95;;;;;;;;;;6251065;28;20412;-61
2023/09/18 13:12:52;;;;;;;20.93;12.47;;;;;;;;;;6249695;28;20149;-60
2023/09/18 13:15:59;;;;;;;23.42;13.65;;;;;;;;;;6248396;28;20291;-61
2023/09/18 13:19:04;;;;;;;23.70;13.15;;;;;;;;;;6249856;28;20505;-61
2023/09/18 13:22:05;;;;;;;23.58;13.55;;;;;;;;;;6247605;28;20136;-60
2023/09/18 13:25:12;;;;;;;23.92;14.00;;;;;;;;;;6246877;28;20051;-61
2023/09/18 13:28:13;;;;;;;17.70;11.52;;;;;;;;;;6250006;28;20615;-59
2023/09/18 13:31:15;;;;;;;20.60;12.27;;;;;;;;;;6247624;28;20049;-60
2023/09/18 13:34:19;;;;;;;18.15;12.00;;;;;;;;;;6250854;28;20095;-61
2023/09/18 13:37:20;;;;;;;19.38;11.68;;;;;;;;;;6248348;28;20048;-60
2023/09/18 13:40:22;;;;;;;17.48;11.88;;;;;;;;;;6247755;28;20606;-60
2023/09/18 13:43:23;;;;;;;24.88;13.25;;;;;;;;;;6251593;28;20067;-61
2023/09/18 13:46:23;;;;;;;18.75;12.13;;;;;;;;;;6248146;28;20049;-60
2023/09/18 13:49:24;;;;;;;25.13;12.43;;;;;;;;;;6252796;28;20147;-61
2023/09/18 13:52:32;;;;;;;19.70;12.23;;;;;;;;;;6249330;28;20408;-65
2023/09/18 13:55:33;;;;;;;19.48;11.75;;;;;;;;;;6249808;28;20056;-61
2023/09/18 13:58:35;;;;;;;19.30;11.73;;;;;;;;;;6247124;28;20666;-63
2023/09/18 14:01:36;;;;;;;19.85;12.05;;;;;;;;;;6248942;28;20053;-63
2023/09/18 14:04:37;;;;;;;18.00;11.17;;;;;;;;;;6249025;28;20052;-62
2023/09/18 14:07:40;;;;;;;23.42;11.52;;;;;;;;;;6248244;28;20056;-63
2023/09/18 14:10:42;;;;;;;19.48;12.00;;;;;;;;;;6247228;28;20103;-64
2023/09/18 14:13:43;;;;;;;20.40;11.43;;;;;;;;;;6249059;28;20072;-61
2023/09/18 14:16:44;;;;;;;19.50;11.60;;;;;;;;;;6248570;28;20041;-62
2023/09/18 14:19:44;;;;;;;19.13;11.35;;;;;;;;;;6250118;28;20077;-64
2023/09/18 14:22:49;;;;;;;19.10;11.63;;;;;;;;;;6249475;28;20045;-62
2023/09/18 14:25:51;;;;;;;19.10;12.10;;;;;;;;;;6251135;28;20103;-63
2023/09/18 14:28:52;;;;;;;19.35;11.25;;;;;;;;;;6249395;28;20036;-62
2023/09/18 14:31:53;;;;;;;18.35;11.77;;;;;;;;;;6243355;28;20044;-62
2023/09/18 14:34:54;;;;;;;19.05;11.13;;;;;;;;;;6246355;28;20037;-63
2023/09/18 14:37:55;;;;;;;18.85;12.20;;;;;;;;;;6248136;28;20041;-64
2023/09/18 14:41:02;;;;;;;17.20;11.02;;;;;;;;;;6246934;28;20056;-61
2023/09/18 14:44:04;;;;;;;21.48;11.65;;;;;;;;;;6247458;28;20178;-62
2023/09/18 14:47:05;;;;;;;18.77;11.70;;;;;;;;;;6246155;28;20160;-62
2023/09/18 14:50:08;;;;;;;20.20;10.82;;;;;;;;;;6251807;28;20048;-62
2023/09/18 14:53:08;;;;;;;22.75;11.40;;;;;;;;;;6251693;28;20556;-61
2023/09/18 14:56:09;;;;;;;20.40;11.43;;;;;;;;;;6244278;28;20080;-61
2023/09/18 14:59:10;;;;;;;24.23;12.10;;;;;;;;;;6249181;28;20535;-61
2023/09/18 15:02:11;;;;;;;23.03;12.00;;;;;;;;;;6254998;28;20076;-61
2023/09/18 15:05:14;;;;;;;20.85;12.05;;;;;;;;;;6253552;28;20373;-61
2023/09/18 15:08:15;;;;;;;23.75;12.48;;;;;;;;;;6250716;28;20063;-60
2023/09/18 15:11:19;;;;;;;17.77;12.23;;;;;;;;;;6249478;28;20143;-60
2023/09/18 15:14:19;;;;;;;19.27;11.60;;;;;;;;;;6250879;28;20101;-61
2023/09/18 15:17:20;;;;;;;21.80;12.70;;;;;;;;;;6253030;28;20063;-61
2023/09/18 15:20:23;;;;;;;18.43;13.30;;;;;;;;;;6251255;28;20139;-61
2023/09/18 15:23:24;;;;;;;20.02;12.23;;;;;;;;;;6254436;28;20048;-61
2023/09/18 15:26:25;;;;;;;21.40;12.68;;;;;;;;;;6253050;28;20420;-61
2023/09/18 15:29:28;;;;;;;25.13;12.97;;;;;;;;;;6251695;28;20044;-61
2023/09/18 15:32:30;;;;;;;22.25;12.20;;;;;;;;;;6232289;28;20053;-61
2023/09/18 15:35:31;;;;;;;21.80;12.98;;;;;;;;;;6251308;28;20077;-60
2023/09/18 15:38:32;;;;;;;24.00;12.98;;;;;;;;;;6249735;28;20055;-61
2023/09/18 15:41:32;;;;;;;21.90;12.70;;;;;;;;;;6258425;28;20441;-60
2023/09/18 15:44:35;;;;;;;21.60;13.10;;;;;;;;;;6254651;28;20555;-62
2023/09/18 15:47:35;;;;;;;21.33;12.48;;;;;;;;;;6255126;28;20793;-62
2023/09/18 15:50:36;;;;;;;27.00;12.93;;;;;;;;;;6253606;28;20055;-61
2023/09/18 15:53:37;;;;;;;37.70;13.43;;;;;;;;;;6255410;28;20471;-60
2023/09/18 15:56:38;;;;;;;23.93;14.13;;;;;;;;;;6252539;28;20543;-60
2023/09/18 15:59:39;;;;;;;25.40;14.98;;;;;;;;;;6252591;28;20303;-60
2023/09/18 16:02:58;;;;;;;22.85;13.70;;;;;;;;;;6251437;28;20463;-60
2023/09/18 16:05:59;;;;;;;21.93;14.30;;;;;;;;;;6251536;28;20048;-62
2023/09/18 16:09:01;;;;;;;26.53;14.67;;;;;;;;;;6253299;28;20088;-59
2023/09/18 16:12:03;;;;;;;21.70;14.18;;;;;;;;;;6250213;28;20536;-60
2023/09/18 16:15:04;;;;;;;32.83;20.20;;;;;;;;;;6252614;28;20500;-61
2023/09/18 16:18:05;;;;;;;33.58;18.98;;;;;;;;;;6253892;28;20539;-62
2023/09/18 16:21:06;;;;;;;29.67;17.73;;;;;;;;;;6248847;28;20053;-61
2023/09/18 16:24:08;;;;;;;25.70;15.83;;;;;;;;;;6255604;28;20065;-63
2023/09/18 16:27:10;;;;;;;24.27;16.15;;;;;;;;;;6253834;28;20488;-59
2023/09/18 16:30:12;;;;;;;25.20;16.10;;;;;;;;;;6251877;28;20425;-62
2023/09/18 16:33:12;;;;;;;;;;;;;;;;;;6251435;28;20050;-63
2023/09/18 16:36:13;;;;;;;26.00;15.30;;;;;;;;;;6234218;28;20305;-62
2023/09/18 16:39:16;;;;;;;24.77;15.80;;;;;;;;;;6252549;28;20133;-61
2023/09/18 16:42:17;;;;;;;26.90;16.08;;;;;;;;;;6253632;28;20048;-59
2023/09/18 16:45:17;;;;;;;24.98;17.23;;;;;;;;;;6255938;28;20463;-61
2023/09/18 16:48:18;;;;;;;25.80;16.33;;;;;;;;;;6254232;28;20131;-60
2023/09/18 16:51:19;;;;;;;25.40;16.00;;;;;;;;;;6253924;28;20041;-60
2023/09/18 16:54:21;;;;;;;27.50;16.53;;;;;;;;;;6251128;28;20476;-60
2023/09/18 16:57:22;;;;;;;35.08;20.40;;;;;;;;;;6254074;28;20045;-61
2023/09/18 17:00:30;;;;;;;36.77;20.63;;;;;;;;;;6249804;28;20040;-61
2023/09/18 17:03:31;;;;;;;39.75;20.88;;;;;;;;;;6219146;28;20041;-61
2023/09/18 17:06:35;;;;;;;33.67;19.67;;;;;;;;;;6249483;28;20472;-60
2023/09/18 17:09:37;;;;;;;32.53;19.17;;;;;;;;;;6250242;28;20538;-60
2023/09/18 17:12:38;;;;;;;33.08;18.00;;;;;;;;;;6253484;28;20200;-60
2023/09/18 17:15:40;;;;;;;;;;;;;;;;;;6252352;28;20066;-62
2023/09/18 17:18:42;;;;;;;26.80;17.80;;;;;;;;;;6252439;28;19925;-63
2023/09/18 17:21:42;;;;;;;31.42;17.23;;;;;;;;;;6251227;28;20063;-60
2023/09/18 17:24:44;;;;;;;30.60;17.77;;;;;;;;;;6248316;28;20416;-61
2023/09/18 17:27:44;;;;;;;37.80;19.92;;;;;;;;;;6250392;28;20543;-61
2023/09/18 17:30:46;;;;;;;37.73;19.10;;;;;;;;;;6254408;28;20131;-62
2023/09/18 17:33:47;;;;;;;;;;;;;;;;;;6244476;28;20045;-59
2023/09/18 17:36:48;;;;;;;29.00;17.52;;;;;;;;;;6246911;28;20423;-60
2023/09/18 17:39:49;;;;;;;41.67;21.40;;;;;;;;;;6252018;28;20049;-59
2023/09/18 17:42:49;;;;;;;41.70;21.93;;;;;;;;;;6253043;28;20167;-60
2023/09/18 17:45:50;;;;;;;39.90;22.47;;;;;;;;;;6248547;28;20144;-60